createdAt,value
2023-05-20T00:01:04.323Z,87.76
2023-05-20T00:03:33.361Z,88.04
2023-05-20T00:06:01.019Z,88.32
2023-05-20T00:08:28.608Z,88.11
2023-05-20T00:10:56.273Z,88.23
2023-05-20T00:13:24.631Z,88.34
2023-05-20T00:15:54.160Z,88.46
2023-05-20T00:18:21.875Z,89.01
2023-05-20T00:20:50.879Z,88.23
2023-05-20T00:23:18.596Z,88.24
2023-05-20T00:25:46.213Z,88.83
2023-05-20T00:28:13.928Z,88.55
2023-05-20T00:30:42.120Z,88.51
2023-05-20T00:33:09.804Z,88.97
2023-05-20T00:35:37.409Z,89.20
2023-05-20T00:38:06.524Z,89.75
2023-05-20T00:40:34.140Z,89.76
2023-05-20T00:43:01.782Z,89.27
2023-05-20T00:45:30.012Z,89.71
2023-05-20T00:48:01.521Z,89.89
2023-05-20T00:50:29.736Z,90.07
2023-05-20T00:52:58.665Z,90.63
2023-05-20T00:55:27.729Z,90.09
2023-05-20T00:57:55.989Z,90.45
2023-05-20T01:00:24.314Z,90.46
2023-05-20T01:02:52.187Z,90.92
2023-05-20T01:05:19.947Z,90.60
2023-05-20T01:07:47.728Z,91.27
2023-05-20T01:10:15.337Z,90.93
2023-05-20T01:12:49.287Z,91.63
2023-05-20T01:15:17.794Z,91.01
2023-05-20T01:17:47.967Z,91.89
2023-05-20T01:20:16.556Z,91.47
2023-05-20T01:22:54.627Z,92.27
2023-05-20T01:25:22.828Z,92.66
2023-05-20T01:27:52.633Z,92.51
2023-05-20T01:30:21.091Z,93.16
2023-05-20T01:32:51.459Z,93.27
2023-05-20T01:35:20.638Z,93.12
2023-05-20T01:37:51.470Z,92.94
2023-05-20T01:40:19.865Z,93.77
2023-05-20T01:42:52.807Z,93.38
2023-05-20T01:45:20.807Z,93.05
2023-05-20T01:47:48.653Z,93.31
2023-05-20T01:50:17.361Z,92.79
2023-05-20T01:52:45.032Z,92.90
2023-05-20T01:55:13.983Z,93.41
2023-05-20T01:57:41.709Z,93.08
2023-05-20T02:00:10.616Z,93.30
2023-05-20T02:02:45.987Z,93.52
2023-05-20T02:05:14.464Z,93.35
2023-05-20T02:07:44.010Z,93.48
2023-05-20T02:10:12.154Z,93.24
2023-05-20T02:12:41.181Z,93.49
2023-05-20T02:15:09.852Z,93.79
2023-05-20T02:17:37.885Z,93.48
2023-05-20T02:20:09.170Z,93.57
2023-05-20T02:22:36.813Z,93.09
2023-05-20T02:25:05.016Z,93.08
2023-05-20T02:27:32.682Z,92.85
2023-05-20T02:30:02.187Z,92.86
2023-05-20T02:32:29.927Z,92.92
2023-05-20T02:34:57.613Z,93.05
2023-05-20T02:37:25.214Z,93.25
2023-05-20T02:39:52.875Z,92.78
2023-05-20T02:42:20.602Z,93.20
2023-05-20T02:44:48.306Z,93.47
2023-05-20T02:47:17.294Z,93.43
2023-05-20T02:49:45.044Z,93.05
2023-05-20T02:52:12.701Z,93.41
2023-05-20T02:54:41.357Z,93.59
2023-05-20T02:57:09.269Z,93.53
2023-05-20T02:59:37.260Z,93.41
2023-05-20T03:02:05.076Z,93.46
2023-05-20T03:04:34.258Z,93.05
2023-05-20T03:07:01.868Z,92.81
2023-05-20T03:09:30.454Z,92.62
2023-05-20T03:11:58.072Z,92.79
2023-05-20T03:14:25.720Z,93.08
2023-05-20T03:16:55.316Z,92.82
2023-05-20T03:19:23.687Z,92.58
2023-05-20T03:21:52.798Z,92.73
2023-05-20T03:24:20.522Z,92.79
2023-05-20T03:26:48.684Z,93.02
2023-05-20T03:29:17.849Z,92.48
2023-05-20T03:31:46.316Z,92.68
2023-05-20T03:34:14.101Z,93.11
2023-05-20T03:36:42.342Z,93.07
2023-05-20T03:39:11.500Z,92.74
2023-05-20T03:41:39.161Z,93.18
2023-05-20T03:44:06.853Z,93.82
2023-05-20T03:46:34.632Z,93.27
2023-05-20T03:49:04.034Z,93.43
2023-05-20T03:51:32.119Z,93.02
2023-05-20T03:54:06.316Z,94.04
2023-05-20T03:56:36.344Z,93.85
2023-05-20T03:59:04.230Z,94.22
2023-05-20T04:01:32.074Z,93.98
2023-05-20T04:03:59.781Z,94.57
2023-05-20T04:06:27.540Z,93.80
2023-05-20T04:08:57.095Z,93.95
2023-05-20T04:11:24.774Z,94.17
2023-05-20T04:13:54.761Z,93.74
2023-05-20T04:16:22.664Z,94.01
2023-05-20T04:18:50.782Z,93.98
2023-05-20T04:21:18.898Z,94.13
2023-05-20T04:23:47.023Z,94.56
2023-05-20T04:26:14.668Z,94.55
2023-05-20T04:28:42.834Z,94.33
2023-05-20T04:31:12.514Z,94.25
2023-05-20T04:33:40.462Z,93.56
2023-05-20T04:36:16.350Z,93.06
2023-05-20T04:38:44.574Z,93.22
2023-05-20T04:41:12.375Z,92.83
2023-05-20T04:43:40.214Z,93.48
2023-05-20T04:46:08.792Z,93.48
2023-05-20T04:48:38.386Z,93.12
2023-05-20T04:51:05.963Z,92.96
2023-05-20T04:53:35.963Z,92.59
2023-05-20T04:56:03.945Z,91.42
2023-05-20T04:58:31.745Z,91.33
2023-05-20T05:01:01.457Z,91.00
2023-05-20T05:03:29.231Z,91.07
2023-05-20T05:05:59.839Z,91.07
2023-05-20T05:08:27.697Z,90.77
2023-05-20T05:10:55.647Z,90.51
2023-05-20T05:13:23.430Z,90.42
2023-05-20T05:15:59.482Z,89.65
2023-05-20T05:18:28.636Z,88.85
2023-05-20T05:21:05.479Z,89.05
2023-05-20T05:23:35.343Z,89.07
2023-05-20T05:26:02.960Z,88.25
2023-05-20T05:28:30.633Z,88.33
2023-05-20T05:30:59.078Z,87.77
2023-05-20T05:33:27.366Z,87.56
2023-05-20T05:35:58.806Z,86.57
2023-05-20T05:38:27.776Z,86.81
2023-05-20T05:40:55.403Z,87.00
2023-05-20T05:43:23.776Z,86.71
2023-05-20T05:45:52.500Z,85.74
2023-05-20T05:48:20.653Z,84.42
2023-05-20T05:50:48.777Z,83.19
2023-05-20T05:53:18.057Z,83.02
2023-05-20T05:55:50.355Z,82.74
2023-05-20T05:58:18.806Z,82.73
2023-05-20T06:00:46.702Z,82.06
2023-05-20T06:03:15.148Z,81.21
2023-05-20T06:05:46.328Z,81.38
2023-05-20T06:08:14.072Z,80.53
2023-05-20T06:10:41.838Z,78.88
2023-05-20T06:13:10.901Z,79.31
2023-05-20T06:15:38.495Z,78.95
2023-05-20T06:18:06.251Z,79.37
2023-05-20T06:20:34.497Z,79.13
2023-05-20T06:23:02.747Z,78.10
2023-05-20T06:25:39.057Z,77.82
2023-05-20T06:28:08.234Z,76.11
2023-05-20T06:30:37.527Z,76.66
2023-05-20T06:33:05.406Z,76.52
2023-05-20T06:35:34.776Z,74.45
2023-05-20T06:38:03.810Z,74.30
2023-05-20T06:40:31.704Z,73.77
2023-05-20T06:42:59.408Z,73.57
2023-05-20T06:45:52.336Z,71.86
2023-05-20T06:48:28.375Z,72.14
2023-05-20T06:50:56.885Z,71.18
2023-05-20T06:53:24.444Z,70.76
2023-05-20T06:55:55.616Z,70.30
2023-05-20T06:58:24.509Z,70.38
2023-05-20T07:00:56.968Z,71.03
2023-05-20T07:03:25.798Z,71.09
2023-05-20T07:05:54.122Z,70.69
2023-05-20T07:08:22.344Z,71.66
2023-05-20T07:10:50.152Z,70.35
2023-05-20T07:13:23.840Z,71.05
2023-05-20T07:15:52.281Z,70.57
2023-05-20T07:18:21.591Z,69.55
2023-05-20T07:20:53.228Z,70.54
2023-05-20T07:23:41.088Z,69.80
2023-05-20T07:26:08.795Z,70.25
2023-05-20T07:28:36.598Z,69.51
2023-05-20T07:31:04.651Z,70.21
2023-05-20T07:33:36.086Z,69.89
2023-05-20T07:36:04.622Z,68.11
2023-05-20T07:38:33.241Z,67.73
2023-05-20T07:41:04.339Z,67.13
2023-05-20T07:43:32.744Z,66.46
2023-05-20T07:46:01.076Z,65.48
2023-05-20T07:48:28.713Z,65.56
2023-05-20T07:50:59.210Z,65.18
2023-05-20T07:53:27.993Z,64.84
2023-05-20T07:55:56.260Z,65.07
2023-05-20T07:58:24.964Z,64.04
2023-05-20T08:00:52.672Z,64.15
2023-05-20T08:03:22.195Z,62.89
2023-05-20T08:05:58.130Z,62.98
2023-05-20T08:08:26.824Z,64.02
2023-05-20T08:10:59.542Z,63.40
2023-05-20T08:13:27.962Z,62.15
2023-05-20T08:15:56.034Z,63.62
2023-05-20T08:18:25.271Z,63.49
2023-05-20T08:20:53.014Z,62.34
2023-05-20T08:23:22.354Z,62.65
2023-05-20T08:25:50.682Z,62.24
2023-05-20T08:28:21.975Z,62.84
2023-05-20T08:30:49.739Z,63.97
2023-05-20T08:33:19.358Z,63.15
2023-05-20T08:35:47.002Z,62.12
2023-05-20T08:38:15.134Z,60.71
2023-05-20T08:40:44.243Z,62.72
2023-05-20T08:43:12.029Z,61.96
2023-05-20T08:45:40.031Z,61.75
2023-05-20T08:48:12.692Z,60.70
2023-05-20T08:50:40.628Z,60.50
2023-05-20T08:53:08.699Z,59.90
2023-05-20T08:55:49.663Z,59.72
2023-05-20T08:58:19.337Z,59.51
2023-05-20T09:00:47.041Z,59.28
2023-05-20T09:03:14.675Z,58.73
2023-05-20T09:05:42.352Z,58.27
2023-05-20T09:08:11.786Z,58.77
2023-05-20T09:10:40.316Z,58.85
2023-05-20T09:13:09.526Z,57.73
2023-05-20T09:15:39.024Z,57.77
2023-05-20T09:18:08.838Z,58.29
2023-05-20T09:20:38.085Z,58.55
2023-05-20T09:23:07.517Z,57.27
2023-05-20T09:25:37.420Z,57.45
2023-05-20T09:28:05.931Z,56.47
2023-05-20T09:30:34.257Z,56.58
2023-05-20T09:33:05.962Z,55.99
2023-05-20T09:35:36.948Z,56.24
2023-05-20T09:38:06.947Z,55.50
2023-05-20T09:40:37.571Z,55.01
2023-05-20T09:43:07.123Z,55.22
2023-05-20T09:45:35.563Z,55.83
2023-05-20T09:48:06.042Z,55.45
2023-05-20T09:50:33.882Z,54.44
2023-05-20T09:53:04.899Z,54.92
2023-05-20T09:55:33.013Z,55.11
2023-05-20T09:58:03.901Z,55.54
2023-05-20T10:00:31.851Z,52.67
2023-05-20T10:03:01.026Z,54.50
2023-05-20T10:05:33.328Z,55.62
2023-05-20T10:08:29.177Z,53.97
2023-05-20T10:11:05.861Z,52.55
2023-05-20T10:14:00.995Z,53.72
2023-05-20T10:16:35.631Z,53.85
2023-05-20T10:19:18.191Z,53.50
2023-05-20T10:21:57.966Z,53.30
2023-05-20T10:24:31.823Z,53.59
2023-05-20T10:27:00.170Z,51.71
2023-05-20T10:29:27.879Z,51.21
2023-05-20T10:31:56.127Z,49.54
2023-05-20T10:34:24.399Z,50.94
2023-05-20T10:37:02.525Z,49.72
2023-05-20T10:39:32.815Z,49.67
2023-05-20T10:42:07.298Z,48.86
2023-05-20T10:44:44.805Z,48.92
2023-05-20T10:49:46.307Z,47.94
2023-05-20T10:52:16.082Z,49.47
2023-05-20T10:54:51.508Z,47.85
2023-05-20T10:57:19.474Z,48.69
2023-05-20T10:59:47.701Z,47.73
2023-05-20T11:02:17.278Z,47.62
2023-05-20T11:04:45.754Z,47.49
2023-05-20T11:07:25.259Z,47.87
2023-05-20T11:09:52.981Z,44.84
2023-05-20T11:12:22.701Z,46.54
2023-05-20T11:14:51.450Z,45.13
2023-05-20T11:17:20.318Z,46.59
2023-05-20T11:19:48.827Z,44.23
2023-05-20T11:22:17.914Z,45.23
2023-05-20T11:24:45.737Z,46.02
2023-05-20T11:27:13.422Z,44.68
2023-05-20T11:29:41.445Z,45.41
2023-05-20T11:32:09.214Z,44.42
2023-05-20T11:34:38.151Z,44.12
2023-05-20T11:37:08.571Z,43.76
2023-05-20T11:39:38.409Z,44.46
2023-05-20T11:42:06.902Z,44.25
2023-05-20T11:44:34.887Z,45.92
2023-05-20T11:47:04.600Z,43.69
2023-05-20T11:49:40.905Z,44.95
2023-05-20T11:52:11.049Z,43.71
2023-05-20T11:54:40.147Z,43.91
2023-05-20T11:57:08.433Z,44.80
2023-05-20T11:59:36.544Z,44.44
2023-05-20T12:02:04.214Z,44.59
2023-05-20T12:04:32.009Z,44.90
2023-05-20T12:06:59.670Z,44.46
2023-05-20T12:09:27.474Z,44.43
2023-05-20T12:11:57.093Z,43.91
2023-05-20T12:14:24.785Z,43.47
2023-05-20T12:16:53.698Z,46.11
2023-05-20T12:19:21.456Z,45.89
2023-05-20T12:21:49.239Z,46.45
2023-05-20T12:24:16.830Z,46.22
2023-05-20T12:26:44.481Z,45.07
2023-05-20T12:29:13.599Z,45.62
2023-05-20T12:31:41.366Z,45.75
2023-05-20T12:34:09.002Z,46.69
2023-05-20T12:36:37.735Z,45.83
2023-05-20T12:39:06.068Z,46.07
2023-05-20T12:41:33.759Z,45.79
2023-05-20T12:44:01.476Z,46.10
2023-05-20T12:46:30.743Z,46.00
2023-05-20T12:48:58.705Z,46.14
2023-05-20T12:51:26.462Z,45.85
2023-05-20T12:53:54.160Z,46.02
2023-05-20T12:56:22.188Z,44.97
2023-05-20T12:58:49.867Z,44.87
2023-05-20T13:01:17.543Z,43.78
2023-05-20T13:03:47.896Z,44.28
2023-05-20T13:06:15.586Z,43.45
2023-05-20T13:08:43.352Z,44.12
2023-05-20T13:11:10.960Z,43.97
2023-05-20T13:13:38.576Z,45.18
2023-05-20T13:16:06.554Z,44.57
2023-05-20T13:18:34.112Z,42.19
2023-05-20T13:21:03.020Z,40.16
2023-05-20T13:23:30.587Z,39.87
2023-05-20T13:25:58.315Z,40.03
2023-05-20T13:28:25.955Z,39.89
2023-05-20T13:30:53.583Z,40.02
2023-05-20T13:33:23.012Z,38.89
2023-05-20T13:35:50.754Z,38.93
2023-05-20T13:38:19.710Z,39.20
2023-05-20T13:40:47.268Z,39.33
2023-05-20T13:43:14.836Z,38.55
2023-05-20T13:45:43.529Z,39.17
2023-05-20T13:48:11.207Z,37.99
2023-05-20T13:50:38.943Z,38.14
2023-05-20T13:53:06.726Z,37.97
2023-05-20T13:55:36.386Z,37.41
2023-05-20T13:58:05.461Z,37.54
2023-05-20T14:00:33.206Z,37.87
2023-05-20T14:03:01.038Z,38.33
2023-05-20T14:05:28.782Z,37.44
2023-05-20T14:07:56.420Z,37.77
2023-05-20T14:10:24.138Z,38.48
2023-05-20T14:12:54.160Z,37.55
2023-05-20T14:15:21.868Z,37.67
2023-05-20T14:17:49.593Z,37.79
2023-05-20T14:20:17.533Z,37.65
2023-05-20T14:22:45.148Z,35.64
2023-05-20T14:25:12.797Z,36.47
2023-05-20T14:27:40.490Z,35.10
2023-05-20T14:30:10.853Z,35.34
2023-05-20T14:32:38.454Z,36.04
2023-05-20T14:35:07.000Z,35.50
2023-05-20T14:37:34.576Z,35.63
2023-05-20T14:40:02.767Z,36.61
2023-05-20T14:42:30.377Z,37.22
2023-05-20T14:44:57.999Z,37.90
2023-05-20T14:47:27.062Z,35.92
2023-05-20T14:49:54.766Z,32.52
2023-05-20T14:52:22.490Z,28.64
2023-05-20T14:54:50.148Z,29.55
2023-05-20T14:57:17.902Z,30.63
2023-05-20T14:59:45.853Z,32.79
2023-05-20T15:02:15.529Z,33.76
2023-05-20T15:04:46.644Z,31.71
2023-05-20T15:07:14.639Z,31.86
2023-05-20T15:09:42.528Z,32.43
2023-05-20T15:12:10.664Z,33.91
2023-05-20T15:14:38.420Z,35.03
2023-05-20T15:17:06.158Z,35.69
2023-05-20T15:19:33.961Z,35.31
2023-05-20T15:22:03.264Z,34.07
2023-05-20T15:24:31.070Z,32.54
2023-05-20T15:26:58.717Z,32.66
2023-05-20T15:29:26.407Z,31.57
2023-05-20T15:31:54.053Z,31.75
2023-05-20T15:34:21.661Z,32.55
2023-05-20T15:36:49.285Z,33.83
2023-05-20T15:39:18.346Z,35.59
2023-05-20T15:41:47.921Z,36.99
2023-05-20T15:44:15.615Z,38.78
2023-05-20T15:46:44.700Z,40.00
2023-05-20T15:49:12.802Z,40.51
2023-05-20T15:51:41.087Z,40.68
2023-05-20T15:54:12.160Z,40.50
2023-05-20T15:56:41.212Z,41.42
2023-05-20T15:59:08.837Z,40.77
2023-05-20T16:01:37.977Z,40.32
2023-05-20T16:04:06.841Z,40.78
2023-05-20T16:06:35.661Z,40.58
2023-05-20T16:09:03.750Z,40.83
2023-05-20T16:11:32.681Z,40.85
2023-05-20T16:14:01.661Z,40.26
2023-05-20T16:16:29.281Z,39.78
2023-05-20T16:18:58.793Z,38.71
2023-05-20T16:21:26.668Z,38.08
2023-05-20T16:23:54.241Z,37.64
2023-05-20T16:26:22.564Z,38.42
2023-05-20T16:28:50.269Z,39.12
2023-05-20T16:31:19.498Z,38.58
2023-05-20T16:33:47.241Z,37.34
2023-05-20T16:36:14.855Z,35.74
2023-05-20T16:38:42.396Z,35.78
2023-05-20T16:41:10.041Z,36.49
2023-05-20T16:43:37.758Z,36.17
2023-05-20T16:46:05.633Z,36.37
2023-05-20T16:48:34.933Z,37.36
2023-05-20T16:51:02.672Z,38.22
2023-05-20T16:53:30.275Z,38.99
2023-05-20T16:55:57.900Z,39.85
2023-05-20T16:58:25.592Z,40.49
2023-05-20T17:00:53.605Z,41.28
2023-05-20T17:03:21.424Z,42.52
2023-05-20T17:05:50.441Z,43.08
2023-05-20T17:08:18.177Z,43.33
2023-05-20T17:10:45.807Z,44.46
2023-05-20T17:13:13.374Z,44.25
2023-05-20T17:15:40.988Z,45.17
2023-05-20T17:18:08.637Z,45.91
2023-05-20T17:20:36.355Z,46.35
2023-05-20T17:23:05.416Z,46.28
2023-05-20T17:25:33.051Z,47.32
2023-05-20T17:28:01.047Z,46.92
2023-05-20T17:30:28.698Z,47.65
2023-05-20T17:32:57.236Z,47.85
2023-05-20T17:35:25.571Z,47.85
2023-05-20T17:37:53.657Z,48.46
2023-05-20T17:40:22.601Z,48.81
2023-05-20T17:42:50.472Z,49.69
2023-05-20T17:45:18.126Z,49.46
2023-05-20T17:47:45.918Z,50.06
2023-05-20T17:50:14.627Z,50.36
2023-05-20T17:52:42.211Z,50.99
2023-05-20T17:55:10.358Z,51.27
2023-05-20T17:57:39.366Z,51.43
2023-05-20T18:00:09.170Z,51.85
2023-05-20T18:02:38.403Z,52.05
2023-05-20T18:05:06.839Z,52.57
2023-05-20T18:07:36.004Z,52.76
2023-05-20T18:10:05.527Z,53.17
2023-05-20T18:12:33.106Z,53.22
2023-05-20T18:15:02.110Z,53.38
2023-05-20T18:17:29.813Z,53.83
2023-05-20T18:19:57.429Z,54.46
2023-05-20T18:22:25.962Z,55.34
2023-05-20T18:24:53.628Z,56.25
2023-05-20T18:27:21.336Z,55.48
2023-05-20T18:29:50.009Z,56.15
2023-05-20T18:32:19.045Z,56.26
2023-05-20T18:34:46.661Z,56.87
2023-05-20T18:37:14.220Z,57.04
2023-05-20T18:39:41.860Z,57.79
2023-05-20T18:42:09.683Z,57.97
2023-05-20T18:44:37.411Z,58.66
2023-05-20T18:47:05.358Z,58.80
2023-05-20T18:49:34.278Z,59.12
2023-05-20T18:52:01.922Z,59.49
2023-05-20T18:54:29.630Z,59.67
2023-05-20T18:56:57.312Z,60.04
2023-05-20T18:59:25.222Z,60.08
2023-05-20T19:01:52.998Z,60.73
2023-05-20T19:04:20.683Z,60.84
2023-05-20T19:06:49.884Z,61.11
2023-05-20T19:09:17.530Z,61.55
2023-05-20T19:11:45.089Z,61.42
2023-05-20T19:14:12.760Z,62.17
2023-05-20T19:16:40.673Z,62.29
2023-05-20T19:19:08.369Z,62.65
2023-05-20T19:21:36.494Z,63.04
2023-05-20T19:24:06.558Z,63.19
2023-05-20T19:26:34.394Z,63.32
2023-05-20T19:29:02.015Z,63.51
2023-05-20T19:31:29.715Z,63.51
2023-05-20T19:33:57.472Z,63.91
2023-05-20T19:36:25.155Z,64.12
2023-05-20T19:38:52.799Z,64.05
2023-05-20T19:41:22.537Z,64.03
2023-05-20T19:43:50.139Z,64.04
2023-05-20T19:46:17.860Z,64.03
2023-05-20T19:48:45.626Z,64.16
2023-05-20T19:51:13.289Z,64.36
2023-05-20T19:53:40.913Z,64.57
2023-05-20T19:56:08.803Z,64.51
2023-05-20T19:58:37.829Z,64.64
2023-05-20T20:01:06.583Z,65.08
2023-05-20T20:03:34.293Z,64.83
2023-05-20T20:06:02.277Z,65.38
2023-05-20T20:08:30.036Z,65.71
2023-05-20T20:10:57.665Z,65.48
2023-05-20T20:13:25.617Z,65.76
2023-05-20T20:15:54.599Z,66.32
2023-05-20T20:18:22.193Z,66.18
2023-05-20T20:20:49.965Z,66.59
2023-05-20T20:23:17.817Z,66.85
2023-05-20T20:25:47.911Z,68.31
2023-05-20T20:28:15.787Z,69.53
2023-05-20T20:30:43.410Z,70.00
2023-05-20T20:33:13.205Z,70.26
2023-05-20T20:35:41.088Z,70.90
2023-05-20T20:38:09.857Z,71.66
2023-05-20T20:40:41.473Z,71.77
2023-05-20T20:43:10.872Z,72.73
2023-05-20T20:45:38.563Z,73.29
2023-05-20T20:48:07.542Z,72.83
2023-05-20T20:50:36.916Z,73.48
2023-05-20T20:53:04.513Z,74.09
2023-05-20T20:55:32.110Z,74.12
2023-05-20T20:58:02.713Z,74.94
2023-05-20T21:00:30.489Z,74.98
2023-05-20T21:02:58.161Z,75.38
2023-05-20T21:05:26.660Z,75.74
2023-05-20T21:07:58.382Z,75.93
2023-05-20T21:10:29.038Z,76.30
2023-05-20T21:12:57.042Z,76.63
2023-05-20T21:15:25.173Z,76.02
2023-05-20T21:17:53.305Z,75.98
2023-05-20T21:20:21.871Z,76.51
2023-05-20T21:22:49.645Z,77.02
2023-05-20T21:25:18.859Z,77.02
2023-05-20T21:27:46.521Z,77.60
2023-05-20T21:30:15.710Z,78.12
2023-05-20T21:32:43.331Z,78.41
2023-05-20T21:35:11.078Z,78.16
2023-05-20T21:37:38.725Z,78.61
2023-05-20T21:40:07.893Z,79.34
2023-05-20T21:42:36.825Z,79.64
2023-05-20T21:45:05.141Z,79.58
2023-05-20T21:47:32.731Z,79.90
2023-05-20T21:50:00.493Z,80.22
2023-05-20T21:52:28.128Z,80.19
2023-05-20T21:54:55.910Z,80.39
2023-05-20T21:57:23.511Z,80.46
2023-05-20T21:59:52.462Z,80.70
2023-05-20T22:02:20.141Z,80.67
2023-05-20T22:04:49.191Z,81.10
2023-05-20T22:07:16.888Z,81.18
2023-05-20T22:09:44.533Z,81.86
2023-05-20T22:12:15.507Z,82.36
2023-05-20T22:14:43.198Z,83.12
2023-05-20T22:17:12.644Z,83.25
2023-05-20T22:19:41.404Z,83.49
2023-05-20T22:22:09.008Z,83.86
2023-05-20T22:24:36.624Z,84.01
2023-05-20T22:27:04.892Z,84.24
2023-05-20T22:33:46.284Z,84.39
2023-05-20T22:36:13.863Z,84.67
2023-05-20T22:38:41.592Z,84.86
2023-05-20T22:41:09.316Z,84.85
2023-05-20T22:43:36.892Z,85.12
2023-05-20T22:46:04.512Z,85.32
2023-05-20T22:48:32.134Z,85.40
2023-05-20T22:51:03.724Z,86.02
2023-05-20T22:53:31.407Z,86.06
2023-05-20T22:55:59.738Z,86.49
2023-05-20T22:58:29.590Z,86.32
2023-05-20T23:00:59.507Z,86.31
2023-05-20T23:03:27.160Z,86.86
2023-05-20T23:05:54.756Z,87.00
2023-05-20T23:08:23.665Z,86.88
2023-05-20T23:10:51.530Z,87.11
2023-05-20T23:13:19.242Z,87.30
2023-05-20T23:15:47.897Z,87.46
2023-05-20T23:18:15.718Z,87.49
2023-05-20T23:20:43.377Z,87.66
2023-05-20T23:23:11.827Z,87.75
2023-05-20T23:25:42.379Z,87.60
2023-05-20T23:28:11.259Z,87.88
2023-05-20T23:30:38.817Z,87.65
2023-05-20T23:33:06.538Z,87.85
2023-05-20T23:35:34.397Z,87.64
2023-05-20T23:38:02.196Z,87.76
2023-05-20T23:40:29.726Z,87.86
2023-05-20T23:42:58.725Z,88.91
2023-05-20T23:45:26.309Z,89.00
2023-05-20T23:47:55.435Z,89.44
2023-05-20T23:50:23.220Z,89.58
2023-05-20T23:52:50.890Z,89.72
2023-05-20T23:55:19.243Z,89.87
2023-05-20T23:57:46.787Z,89.93
